Time;durP1;ratioP1;P1;durP2;ratioP2;P2;SDS_P1;SDS_P2;PMS_P1;PMS_P2;Temp;Humidity;BMP_temperature;BMP_pressure;BME280_temperature;BME280_humidity;BME280_pressure;Samples;Min_cycle;Max_cycle;Signal;HPM_P1;HPM_P2
2022/09/12 00:00:05;;;;;;;15.40;12.25;;;11.20;83.10;;;;;;5010183;28;20034;-68
2022/09/12 00:02:31;;;;;;;13.25;10.52;;;11.30;83.20;;;;;;4993577;28;20033;-67
2022/09/12 00:04:59;;;;;;;14.98;10.52;;;11.30;84.70;;;;;;5010479;28;20036;-67
2022/09/12 00:07:25;;;;;;;13.55;10.57;;;11.40;84.40;;;;;;5023757;28;20034;-68
2022/09/12 00:09:50;;;;;;;14.77;11.35;;;11.40;86.10;;;;;;5009680;28;20030;-68
2022/09/12 00:12:16;;;;;;;16.17;10.23;;;11.50;87.00;;;;;;5016402;28;20471;-68
2022/09/12 00:14:42;;;;;;;13.45;10.85;;;11.40;87.60;;;;;;5018366;28;20413;-68
2022/09/12 00:17:07;;;;;;;12.88;9.55;;;11.40;86.70;;;;;;4996487;28;20052;-68
2022/09/12 00:19:33;;;;;;;12.88;10.07;;;11.50;87.90;;;;;;5004719;28;20030;-68
2022/09/12 00:21:59;;;;;;;10.82;9.15;;;11.50;88.20;;;;;;5022615;28;20163;-68
2022/09/12 00:24:24;;;;;;;13.52;9.73;;;11.50;87.90;;;;;;5021427;28;20026;-68
2022/09/12 00:26:50;;;;;;;11.15;9.60;;;11.60;89.50;;;;;;5013359;28;20038;-68
2022/09/12 00:29:18;;;;;;;12.98;10.25;;;11.60;89.60;;;;;;5000858;28;20041;-68
2022/09/12 00:31:44;;;;;;;13.02;10.25;;;11.60;89.60;;;;;;4992429;28;20116;-67
2022/09/12 00:34:11;;;;;;;13.18;10.30;;;11.50;89.90;;;;;;5006904;28;20037;-68
2022/09/12 00:36:38;;;;;;;14.00;9.88;;;11.50;89.80;;;;;;5013953;28;20319;-68
2022/09/12 00:39:05;;;;;;;15.35;10.23;;;11.50;89.50;;;;;;5013654;28;20029;-69
2022/09/12 00:41:35;;;;;;;17.70;10.27;;;11.40;89.60;;;;;;5019161;28;20038;-68
2022/09/12 00:44:23;;;;;;;12.43;10.25;;;11.40;89.50;;;;;;5006707;28;20427;-69
2022/09/12 00:46:53;;;;;;;12.95;9.95;;;11.40;89.30;;;;;;4982084;28;20050;-68
2022/09/12 00:49:36;;;;;;;11.63;9.38;;;11.40;89.60;;;;;;5009590;28;20026;-68
2022/09/12 00:52:08;;;;;;;13.65;9.07;;;11.40;90.00;;;;;;5015603;28;20121;-68
2022/09/12 00:54:41;;;;;;;11.50;9.00;;;11.40;90.40;;;;;;5007950;28;21247;-68
2022/09/12 00:57:10;;;;;;;12.27;9.40;;;11.40;90.30;;;;;;5017765;28;20036;-68
2022/09/12 00:59:47;;;;;;;12.43;9.35;;;11.30;90.50;;;;;;5014079;28;20128;-68
2022/09/12 01:02:12;;;;;;;11.60;8.40;;;11.30;90.60;;;;;;5007201;28;20025;-68
2022/09/12 01:04:41;;;;;;;13.43;9.15;;;11.30;90.50;;;;;;5004057;28;20041;-68
2022/09/12 01:07:07;;;;;;;12.23;9.52;;;11.40;91.00;;;;;;5019220;28;20026;-68
2022/09/12 01:09:35;;;;;;;11.07;8.80;;;11.40;91.30;;;;;;5012369;28;20030;-68
2022/09/12 01:12:01;;;;;;;12.02;9.23;;;11.40;91.30;;;;;;4994682;28;20049;-68
2022/09/12 01:14:28;;;;;;;13.25;8.95;;;11.40;91.30;;;;;;5018214;28;20018;-68
2022/09/12 01:16:54;;;;;;;10.57;8.75;;;11.40;91.40;;;;;;5019270;28;20035;-68
2022/09/12 01:20:08;;;;;;;13.07;8.18;;;11.40;91.20;;;;;;5010257;28;20038;-68
2022/09/12 01:22:52;;;;;;;9.50;8.25;;;11.50;91.40;;;;;;4950511;28;20330;-68
2022/09/12 01:25:38;;;;;;;;;;;11.50;91.90;;;;;;5014085;28;20052;-67
2022/09/12 01:28:34;;;;;;;10.27;7.80;;;11.50;92.20;;;;;;5010393;28;19913;-68
2022/09/12 01:31:47;;;;;;;10.80;8.07;;;11.50;92.30;;;;;;5019097;28;20029;-67
2022/09/12 01:34:27;;;;;;;11.63;8.05;;;11.40;92.30;;;;;;4999893;28;20330;-68
2022/09/12 01:37:27;;;;;;;10.88;7.88;;;11.30;92.00;;;;;;5015061;28;20382;-67
2022/09/12 01:40:21;;;;;;;10.65;8.35;;;11.30;91.30;;;;;;4943551;28;20034;-68
2022/09/12 01:43:06;;;;;;;10.25;7.90;;;11.40;91.60;;;;;;5000993;28;20457;-68
2022/09/12 01:45:55;;;;;;;11.55;8.45;;;11.50;92.20;;;;;;5010904;28;20080;-68
2022/09/12 01:48:28;;;;;;;11.40;8.77;;;11.40;91.80;;;;;;5004312;28;20373;-67
2022/09/12 01:51:17;;;;;;;11.23;9.03;;;11.40;91.80;;;;;;5019049;28;20306;-68
2022/09/12 01:54:02;;;;;;;14.43;9.10;;;11.30;91.20;;;;;;5014390;28;20052;-68
2022/09/12 01:56:33;;;;;;;12.85;8.68;;;11.30;91.10;;;;;;5005259;28;20569;-68
2022/09/12 01:59:03;;;;;;;12.40;8.30;;;11.20;90.60;;;;;;5001212;28;20052;-67
2022/09/12 02:01:35;;;;;;;10.77;9.02;;;11.10;90.00;;;;;;5008707;28;20311;-67
2022/09/12 02:04:09;;;;;;;14.07;9.02;;;11.00;90.20;;;;;;5016199;28;20421;-68
2022/09/12 02:06:46;;;;;;;12.05;9.27;;;11.00;89.30;;;;;;5017615;28;20049;-67
2022/09/12 02:09:21;;;;;;;15.48;9.68;;;11.00;88.70;;;;;;5015095;28;20054;-67
2022/09/12 02:11:49;;;;;;;11.98;9.05;;;11.00;88.00;;;;;;5004722;28;20131;-67
2022/09/12 02:14:21;;;;;;;13.05;9.48;;;10.90;87.90;;;;;;5013956;28;20049;-67
2022/09/12 02:16:54;;;;;;;14.75;9.77;;;10.90;87.70;;;;;;5004847;28;20034;-68
2022/09/12 02:19:29;;;;;;;12.80;9.57;;;10.90;87.60;;;;;;5004326;28;20038;-67
2022/09/12 02:21:58;;;;;;;11.82;9.18;;;10.80;87.10;;;;;;5014907;28;20037;-67
2022/09/12 02:24:30;;;;;;;12.02;9.48;;;10.80;87.30;;;;;;5009385;28;20105;-68
2022/09/12 02:27:02;;;;;;;11.48;9.57;;;10.70;87.50;;;;;;4998276;28;20080;-68
2022/09/12 02:29:28;;;;;;;15.63;9.07;;;10.60;87.00;;;;;;5011255;28;20364;-68
2022/09/12 02:31:58;;;;;;;12.75;9.65;;;10.60;85.90;;;;;;5006431;28;20026;-67
2022/09/12 02:34:58;;;;;;;10.57;8.52;;;10.80;85.70;;;;;;5010221;28;20108;-68
2022/09/12 02:37:59;;;;;;;10.40;8.48;;;10.80;86.60;;;;;;5009656;28;20026;-68
2022/09/12 02:40:25;;;;;;;9.50;7.30;;;10.70;86.30;;;;;;5001514;28;20034;-68
2022/09/12 02:42:51;;;;;;;13.07;8.63;;;10.70;86.80;;;;;;5001980;28;20029;-67
2022/09/12 02:45:17;;;;;;;12.55;9.75;;;10.60;87.00;;;;;;5012596;28;20088;-68
2022/09/12 02:47:55;;;;;;;17.33;10.27;;;10.50;88.10;;;;;;5002961;28;20045;-68
2022/09/12 02:50:20;;;;;;;13.73;9.68;;;10.30;88.00;;;;;;4999374;28;20055;-68
2022/09/12 02:52:47;;;;;;;16.02;10.60;;;10.20;87.40;;;;;;5007815;28;20314;-68
2022/09/12 02:55:13;;;;;;;12.43;8.93;;;10.20;86.70;;;;;;5011986;28;20022;-68
2022/09/12 02:57:39;;;;;;;12.57;9.63;;;10.10;86.00;;;;;;5000241;28;20037;-69
2022/09/12 03:00:06;;;;;;;11.90;8.63;;;10.10;85.80;;;;;;5003846;28;20034;-67
2022/09/12 03:02:41;;;;;;;10.80;8.15;;;10.00;85.30;;;;;;5007970;28;20030;-68
2022/09/12 03:05:19;;;;;;;12.75;9.35;;;10.00;85.10;;;;;;5013019;28;20385;-68
2022/09/12 03:07:50;;;;;;;10.77;7.85;;;10.10;84.70;;;;;;5010318;28;20056;-67
2022/09/12 03:10:46;;;;;;;13.00;8.68;;;10.10;84.00;;;;;;5005585;28;20737;-68
2022/09/12 03:13:27;;;;;;;12.60;10.63;;;10.10;83.80;;;;;;5011591;28;20476;-68
2022/09/12 03:16:02;;;;;;;9.98;8.43;;;10.00;84.40;;;;;;5005077;28;20120;-68
2022/09/12 03:18:36;;;;;;;12.02;9.00;;;9.90;83.90;;;;;;5000370;28;20079;-67
2022/09/12 03:21:32;;;;;;;8.63;7.37;;;9.70;83.60;;;;;;5003210;28;20351;-66
2022/09/12 03:24:28;;;;;;;12.88;10.57;;;9.80;82.90;;;;;;5001652;28;20384;-67
2022/09/12 03:27:00;;;;;;;10.13;8.18;;;9.70;83.20;;;;;;5015245;28;20032;-66
2022/09/12 03:29:26;;;;;;;15.75;10.98;;;9.70;82.30;;;;;;5002067;28;20373;-67
2022/09/12 03:31:54;;;;;;;9.80;7.80;;;9.60;83.10;;;;;;5016103;28;20410;-69
2022/09/12 03:34:22;;;;;;;9.77;8.10;;;9.60;82.20;;;;;;5022615;28;20030;-69
2022/09/12 03:36:48;;;;;;;12.25;9.32;;;9.60;82.50;;;;;;5018669;28;20422;-69
2022/09/12 03:39:14;;;;;;;10.88;9.07;;;9.40;83.20;;;;;;5012805;28;20053;-68
2022/09/12 03:41:39;;;;;;;13.60;8.60;;;9.40;82.10;;;;;;5013123;28;20026;-68
2022/09/12 03:44:05;;;;;;;14.18;9.57;;;9.40;81.50;;;;;;5024022;28;20357;-68
2022/09/12 03:46:31;;;;;;;15.90;10.73;;;9.50;80.60;;;;;;5013974;28;20153;-68
2022/09/12 03:48:57;;;;;;;11.07;8.88;;;9.50;81.10;;;;;;4997920;28;20164;-67
2022/09/12 03:51:22;;;;;;;14.50;9.88;;;9.50;80.80;;;;;;5016265;28;20022;-67
2022/09/12 03:53:49;;;;;;;11.32;9.18;;;9.50;81.10;;;;;;5019049;28;20026;-67
2022/09/12 03:56:18;;;;;;;13.15;10.35;;;9.40;81.70;;;;;;5016218;28;20026;-67
2022/09/12 03:58:45;;;;;;;19.38;11.95;;;9.40;81.20;;;;;;5012077;28;20034;-68
2022/09/12 04:01:16;;;;;;;16.10;11.93;;;9.30;80.80;;;;;;5017565;28;20075;-67
2022/09/12 04:03:43;;;;;;;16.88;10.63;;;9.50;78.70;;;;;;5018316;28;20075;-68
2022/09/12 04:06:11;;;;;;;11.52;9.18;;;9.50;79.90;;;;;;5017759;28;20370;-68
2022/09/12 04:08:37;;;;;;;22.90;13.55;;;9.40;80.10;;;;;;5010719;28;20116;-68
2022/09/12 04:11:09;;;;;;;16.20;11.27;;;9.40;79.60;;;;;;5008264;28;20030;-68
2022/09/12 04:13:36;;;;;;;18.00;12.70;;;9.30;79.40;;;;;;5008040;28;20030;-68
2022/09/12 04:16:02;;;;;;;17.48;12.68;;;9.30;79.90;;;;;;5015278;28;20033;-68
2022/09/12 04:18:27;;;;;;;11.15;8.95;;;9.20;80.50;;;;;;5013002;28;20081;-68
2022/09/12 04:20:53;;;;;;;16.33;11.73;;;9.10;79.10;;;;;;5017094;28;20029;-68
2022/09/12 04:23:19;;;;;;;16.30;9.60;;;9.10;79.60;;;;;;5021285;28;20385;-68
2022/09/12 04:25:55;;;;;;;15.43;11.75;;;9.10;79.00;;;;;;5003674;28;20030;-68
2022/09/12 04:28:25;;;;;;;13.55;8.68;;;9.10;78.90;;;;;;5019625;28;20038;-68
2022/09/12 04:30:50;;;;;;;19.92;12.88;;;9.10;79.10;;;;;;5014063;28;20034;-68
2022/09/12 04:33:17;;;;;;;10.82;8.18;;;9.20;78.30;;;;;;5025018;28;20029;-68
2022/09/12 04:35:44;;;;;;;15.00;12.10;;;9.20;78.80;;;;;;5026856;28;20322;-68
2022/09/12 04:38:09;;;;;;;14.82;10.52;;;9.20;79.10;;;;;;5027088;28;20018;-68
2022/09/12 04:40:35;;;;;;;21.63;14.75;;;9.20;78.50;;;;;;5016615;28;20100;-68
2022/09/12 04:43:01;;;;;;;21.00;14.40;;;9.20;78.40;;;;;;5017715;28;20054;-68
2022/09/12 04:45:28;;;;;;;15.52;12.10;;;9.20;78.80;;;;;;5019089;28;20117;-68
2022/09/12 04:47:54;;;;;;;17.13;12.75;;;9.10;78.90;;;;;;5016259;28;20050;-68
2022/09/12 04:50:20;;;;;;;24.17;15.55;;;9.10;78.80;;;;;;5017950;28;20037;-68
2022/09/12 04:52:52;;;;;;;21.25;13.70;;;9.00;79.60;;;;;;5018345;28;20036;-68
2022/09/12 04:55:19;;;;;;;15.43;11.60;;;8.90;79.20;;;;;;5017685;28;20477;-68
2022/09/12 04:57:45;;;;;;;21.80;14.32;;;8.80;79.00;;;;;;5018798;28;20036;-68
2022/09/12 05:00:12;;;;;;;14.00;10.20;;;8.80;78.90;;;;;;5018282;28;20105;-68
2022/09/12 05:02:38;;;;;;;17.75;12.80;;;8.80;78.50;;;;;;5008903;28;20092;-68
2022/09/12 05:05:07;;;;;;;21.23;14.98;;;8.80;77.80;;;;;;5018692;28;20026;-68
2022/09/12 05:07:32;;;;;;;19.50;13.00;;;8.80;78.20;;;;;;5016400;28;20069;-68
2022/09/12 05:09:59;;;;;;;16.98;11.95;;;8.90;77.90;;;;;;5015798;28;20050;-68
2022/09/12 05:12:26;;;;;;;17.60;12.75;;;8.90;77.50;;;;;;5013152;28;20030;-67
2022/09/12 05:14:53;;;;;;;26.38;16.33;;;9.00;77.40;;;;;;5016079;28;20311;-68
2022/09/12 05:17:19;;;;;;;13.93;10.57;;;9.00;78.00;;;;;;5017423;28;20017;-68
2022/09/12 05:19:46;;;;;;;18.90;11.82;;;9.00;77.30;;;;;;5017619;28;20434;-69
2022/09/12 05:22:15;;;;;;;22.73;14.48;;;9.00;78.00;;;;;;5017891;28;20033;-68
2022/09/12 05:24:42;;;;;;;14.80;10.85;;;8.90;78.00;;;;;;5016770;28;20026;-68
2022/09/12 05:27:11;;;;;;;16.95;12.35;;;8.90;77.40;;;;;;4996956;28;20076;-68
2022/09/12 05:29:42;;;;;;;17.80;13.02;;;8.90;77.60;;;;;;5015970;28;20034;-68
2022/09/12 05:32:08;;;;;;;21.70;14.95;;;9.10;77.00;;;;;;5015080;28;20450;-67
2022/09/12 05:34:37;;;;;;;19.00;11.55;;;9.10;77.40;;;;;;5016600;28;20014;-68
2022/09/12 05:37:05;;;;;;;16.20;12.70;;;9.10;77.10;;;;;;5016765;28;20022;-69
2022/09/12 05:39:31;;;;;;;17.13;11.35;;;9.20;76.80;;;;;;5010371;28;20113;-69
2022/09/12 05:41:56;;;;;;;15.82;12.75;;;9.30;77.20;;;;;;5000074;28;20129;-68
2022/09/12 05:44:22;;;;;;;14.98;11.25;;;9.30;77.00;;;;;;5018085;28;20022;-68
2022/09/12 05:46:50;;;;;;;16.63;11.45;;;9.40;77.50;;;;;;5010281;28;20446;-69
2022/09/12 05:49:15;;;;;;;11.85;9.77;;;9.30;77.40;;;;;;5015289;28;20419;-68
2022/09/12 05:51:43;;;;;;;15.90;11.32;;;9.40;76.90;;;;;;4995476;28;20069;-68
2022/09/12 05:54:12;;;;;;;14.48;10.27;;;9.60;76.80;;;;;;5007681;28;20026;-68
2022/09/12 05:56:40;;;;;;;13.13;9.50;;;9.70;77.20;;;;;;5005268;28;20023;-68
2022/09/12 05:59:11;;;;;;;13.85;9.85;;;9.80;76.90;;;;;;5012781;28;20100;-68
2022/09/12 06:01:37;;;;;;;18.55;12.43;;;9.90;76.90;;;;;;5012578;28;20080;-68
2022/09/12 06:04:06;;;;;;;15.88;11.98;;;10.10;77.00;;;;;;5009101;28;20029;-68
2022/09/12 06:06:35;;;;;;;16.23;12.15;;;10.30;76.70;;;;;;5037523;28;20033;-68
2022/09/12 06:09:02;;;;;;;17.25;11.80;;;10.30;77.20;;;;;;5026772;28;20041;-68
2022/09/12 06:11:30;;;;;;;17.75;11.02;;;10.40;77.60;;;;;;5001823;28;20038;-68
2022/09/12 06:13:57;;;;;;;15.50;10.43;;;10.50;76.70;;;;;;5015539;28;20501;-68
2022/09/12 06:16:31;;;;;;;18.73;13.02;;;10.70;76.80;;;;;;5017391;28;20037;-68
2022/09/12 06:18:59;;;;;;;21.08;15.77;;;10.80;76.90;;;;;;5017388;28;20080;-68
2022/09/12 06:21:30;;;;;;;22.95;14.60;;;11.00;76.80;;;;;;5016230;28;20038;-68
2022/09/12 06:23:57;;;;;;;22.83;15.18;;;11.00;77.40;;;;;;5023004;28;20033;-67
2022/09/12 06:26:24;;;;;;;15.77;13.27;;;11.00;77.40;;;;;;5035764;28;20029;-70
2022/09/12 06:28:50;;;;;;;22.60;16.55;;;11.00;77.40;;;;;;5023164;28;20453;-69
2022/09/12 06:31:23;;;;;;;17.33;13.95;;;11.10;77.80;;;;;;5019250;28;20112;-69
2022/09/12 06:33:51;;;;;;;20.17;14.98;;;11.20;77.90;;;;;;5015257;28;20062;-68
2022/09/12 06:36:23;;;;;;;18.83;13.45;;;11.30;78.30;;;;;;5014179;28;20036;-69
2022/09/12 06:38:57;;;;;;;15.73;13.23;;;11.30;79.10;;;;;;5016658;28;20045;-69
2022/09/12 06:41:24;;;;;;;16.52;13.13;;;11.40;79.30;;;;;;5015726;28;20029;-69
2022/09/12 06:43:50;;;;;;;14.68;11.45;;;11.50;79.80;;;;;;5026336;28;20102;-69
2022/09/12 06:46:15;;;;;;;17.38;12.48;;;11.60;80.40;;;;;;5015774;28;20026;-69
2022/09/12 06:48:41;;;;;;;16.30;12.35;;;11.70;81.30;;;;;;5014898;28;20449;-69
2022/09/12 06:51:15;;;;;;;13.60;11.07;;;11.90;82.60;;;;;;5016957;28;20046;-68
2022/09/12 06:53:44;;;;;;;12.77;10.07;;;12.00;84.10;;;;;;5027440;28;20072;-68
2022/09/12 06:56:15;;;;;;;12.30;9.80;;;12.00;86.80;;;;;;5033024;28;20040;-69
2022/09/12 06:58:42;;;;;;;13.93;10.20;;;12.10;88.70;;;;;;5023190;28;20049;-69
2022/09/12 07:01:14;;;;;;;12.25;9.02;;;12.20;90.30;;;;;;5016898;28;20029;-68
2022/09/12 07:03:40;;;;;;;12.80;9.10;;;12.40;91.10;;;;;;5015729;28;20437;-68
2022/09/12 07:06:11;;;;;;;13.15;9.40;;;12.50;92.50;;;;;;5014587;28;20034;-68
2022/09/12 07:08:38;;;;;;;12.25;8.40;;;12.70;93.40;;;;;;5014839;28;20049;-68
2022/09/12 07:11:14;;;;;;;13.02;9.77;;;12.90;94.10;;;;;;5014319;28;20026;-69
2022/09/12 07:13:41;;;;;;;11.73;9.25;;;13.10;94.40;;;;;;5015607;28;20106;-68
2022/09/12 07:16:07;;;;;;;12.48;8.43;;;13.30;95.10;;;;;;5016653;28;20018;-69
2022/09/12 07:18:33;;;;;;;11.82;8.52;;;13.50;96.10;;;;;;5016455;28;20022;-68
2022/09/12 07:21:07;;;;;;;14.32;8.13;;;13.80;95.60;;;;;;5016602;28;20322;-68
2022/09/12 07:23:32;;;;;;;10.60;7.57;;;14.10;97.50;;;;;;5015586;28;20033;-69
2022/09/12 07:26:00;;;;;;;11.15;8.10;;;14.30;97.80;;;;;;5015078;28;20084;-68
2022/09/12 07:28:28;;;;;;;8.48;7.47;;;14.50;97.90;;;;;;5016367;28;20406;-69
2022/09/12 07:30:53;;;;;;;10.88;8.07;;;14.70;98.00;;;;;;5016351;28;20029;-69
2022/09/12 07:33:26;;;;;;;10.48;7.25;;;14.90;98.00;;;;;;5015337;28;20029;-69
2022/09/12 07:35:53;;;;;;;9.38;7.43;;;14.90;98.00;;;;;;5016032;28;20026;-68
2022/09/12 07:38:19;;;;;;;9.73;6.80;;;15.00;98.00;;;;;;5016126;28;20014;-69
2022/09/12 07:40:45;;;;;;;10.07;6.53;;;15.10;98.00;;;;;;5014924;28;20026;-68
2022/09/12 07:43:13;;;;;;;9.00;6.55;;;15.20;98.00;;;;;;5015262;28;20490;-69
2022/09/12 07:45:42;;;;;;;9.93;7.57;;;15.40;98.00;;;;;;5015908;28;20045;-68
2022/09/12 07:48:08;;;;;;;9.90;7.40;;;15.30;98.00;;;;;;5016014;28;20047;-69
2022/09/12 07:50:37;;;;;;;10.63;7.38;;;15.30;98.00;;;;;;5016031;28;20017;-68
2022/09/12 07:53:03;;;;;;;9.50;6.60;;;15.30;98.00;;;;;;5017655;28;20319;-68
2022/09/12 07:55:29;;;;;;;9.57;6.43;;;15.50;98.00;;;;;;4978109;28;20066;-69
2022/09/12 07:57:55;;;;;;;9.80;6.72;;;15.70;98.00;;;;;;4996334;28;20023;-69
2022/09/12 08:00:21;;;;;;;9.27;6.80;;;16.10;98.00;;;;;;4996539;28;20030;-68
2022/09/12 08:02:55;;;;;;;9.65;6.63;;;16.30;98.00;;;;;;5006019;28;20022;-69
2022/09/12 08:05:20;;;;;;;7.40;5.25;;;16.40;98.00;;;;;;5016027;28;20034;-69
2022/09/12 08:07:46;;;;;;;7.72;5.63;;;16.80;98.00;;;;;;5015997;28;20022;-69
2022/09/12 08:10:12;;;;;;;7.50;4.97;;;17.60;98.00;;;;;;5014633;28;20018;-69
2022/09/12 08:12:38;;;;;;;6.75;4.35;;;18.70;94.20;;;;;;5015010;28;20076;-69
2022/09/12 08:15:04;;;;;;;5.28;3.50;;;20.00;89.10;;;;;;5015790;28;20030;-69
2022/09/12 08:17:29;;;;;;;5.70;3.25;;;20.90;86.90;;;;;;5015812;28;20361;-69
2022/09/12 08:19:55;;;;;;;4.78;2.65;;;21.90;84.80;;;;;;5015884;28;20026;-69
2022/09/12 08:22:22;;;;;;;6.00;2.85;;;22.60;82.50;;;;;;5014599;28;20411;-69
2022/09/12 08:24:48;;;;;;;7.75;2.60;;;23.40;80.00;;;;;;5015917;28;20116;-69
2022/09/12 08:27:13;;;;;;;4.50;1.70;;;24.10;77.60;;;;;;5014521;28;20404;-69
2022/09/12 08:29:39;;;;;;;3.22;1.45;;;24.90;73.30;;;;;;5015551;28;20030;-69
2022/09/12 08:32:05;;;;;;;7.70;2.25;;;25.50;70.70;;;;;;5014746;28;20022;-68
2022/09/12 08:34:35;;;;;;;3.25;1.10;;;25.80;68.00;;;;;;5015655;28;20492;-68
2022/09/12 08:37:01;;;;;;;1.90;1.13;;;26.40;67.90;;;;;;5015596;28;20034;-69
2022/09/12 08:39:31;;;;;;;3.58;1.33;;;26.40;66.00;;;;;;5015693;28;20029;-68
2022/09/12 08:42:00;;;;;;;2.55;1.20;;;26.50;66.30;;;;;;5013262;28;20026;-68
2022/09/12 08:44:29;;;;;;;2.60;1.27;;;26.50;64.70;;;;;;5015720;28;20026;-68
2022/09/12 08:47:19;;;;;;;3.15;1.40;;;27.10;63.60;;;;;;5015399;28;20042;-68
2022/09/12 08:50:09;;;;;;;4.78;2.10;;;27.30;62.80;;;;;;5015432;28;20034;-68
2022/09/12 08:52:53;;;;;;;4.32;2.70;;;26.80;67.60;;;;;;5014587;28;20022;-68
2022/09/12 08:55:52;;;;;;;4.60;2.40;;;25.40;71.60;;;;;;5014498;28;20609;-68
2022/09/12 08:58:26;;;;;;;5.25;2.70;;;24.70;73.60;;;;;;4984041;28;20057;-69
2022/09/12 09:01:14;;;;;;;4.32;2.50;;;24.80;73.90;;;;;;5019064;28;20069;-68
2022/09/12 09:04:01;;;;;;;3.63;2.05;;;25.10;73.40;;;;;;5018132;28;20042;-68
2022/09/12 09:06:58;;;;;;;5.45;2.65;;;25.40;71.10;;;;;;5018820;28;20109;-68
2022/09/12 09:09:29;;;;;;;4.80;1.92;;;25.80;70.70;;;;;;5017727;28;20033;-68
2022/09/12 09:12:25;;;;;;;3.60;1.67;;;26.90;67.40;;;;;;5017689;28;20426;-68
2022/09/12 09:15:36;;;;;;;3.78;1.40;;;27.80;62.40;;;;;;5014378;28;20029;-68
2022/09/12 09:18:16;;;;;;;2.45;1.20;;;27.80;60.90;;;;;;5018902;28;20021;-67
2022/09/12 09:20:53;;;;;;;3.20;1.52;;;28.40;60.40;;;;;;5036043;28;20288;-70
2022/09/12 09:23:41;;;;;;;4.97;2.10;;;28.50;61.00;;;;;;5038244;28;20480;-70
2022/09/12 09:26:13;;;;;;;4.15;1.70;;;27.60;65.50;;;;;;5016436;28;20029;-69
2022/09/12 09:28:50;;;;;;;3.45;1.25;;;27.80;61.80;;;;;;5017033;28;20033;-69
2022/09/12 09:31:34;;;;;;;2.78;1.35;;;28.50;61.00;;;;;;5022493;28;20926;-69
2022/09/12 09:34:00;;;;;;;3.03;1.40;;;29.00;59.30;;;;;;5020472;28;20314;-69
2022/09/12 09:36:44;;;;;;;3.53;1.70;;;29.40;58.30;;;;;;5019285;28;20026;-69
2022/09/12 09:39:39;;;;;;;3.97;2.05;;;29.30;61.00;;;;;;5033204;28;20025;-69
2022/09/12 09:42:20;;;;;;;4.28;1.77;;;28.70;63.10;;;;;;5023546;28;20029;-69
2022/09/12 09:44:47;;;;;;;2.35;1.10;;;28.30;62.40;;;;;;5034896;28;20022;-69
2022/09/12 09:47:14;;;;;;;2.42;0.93;;;28.40;60.90;;;;;;5018095;28;20312;-69
2022/09/12 09:49:40;;;;;;;2.65;1.02;;;28.00;60.20;;;;;;5018099;28;20425;-69
2022/09/12 09:52:07;;;;;;;2.13;1.08;;;27.80;60.40;;;;;;5017814;28;20076;-69
2022/09/12 09:54:56;;;;;;;3.47;1.00;;;28.00;60.30;;;;;;5018153;28;20022;-69
2022/09/12 09:57:34;;;;;;;3.35;1.00;;;28.20;60.20;;;;;;4998483;28;20326;-69
2022/09/12 10:00:32;;;;;;;1.58;0.90;;;28.50;59.40;;;;;;4998324;28;20026;-68
2022/09/12 10:03:06;;;;;;;3.10;0.90;;;28.60;57.20;;;;;;4998296;28;20105;-68
2022/09/12 10:05:34;;;;;;;2.60;0.98;;;28.60;57.80;;;;;;5004450;28;20073;-69
2022/09/12 10:08:02;;;;;;;2.00;0.90;;;28.80;57.40;;;;;;5017902;28;20033;-69
2022/09/12 10:10:30;;;;;;;3.63;2.10;;;28.90;56.00;;;;;;5016302;28;20026;-69
2022/09/12 10:13:22;;;;;;;2.30;1.05;;;28.50;63.30;;;;;;5017669;28;20083;-69
2022/09/12 10:16:00;;;;;;;4.07;0.90;;;28.20;58.60;;;;;;5015909;28;20026;-69
2022/09/12 10:18:39;;;;;;;4.57;2.03;;;28.20;58.90;;;;;;5014228;28;20030;-69
2022/09/12 10:21:33;;;;;;;4.20;2.47;;;27.70;65.30;;;;;;4997904;28;20025;-69
2022/09/12 10:24:08;;;;;;;;;;;27.90;66.90;;;;;;5030672;28;20041;-69
2022/09/12 10:26:38;;;;;;;5.00;2.58;;;28.20;66.90;;;;;;5015006;28;19955;-69
2022/09/12 10:29:11;;;;;;;5.20;1.95;;;27.80;67.70;;;;;;5036057;28;20057;-68
2022/09/12 10:31:58;;;;;;;5.10;2.80;;;27.60;64.90;;;;;;5015628;28;20022;-68
2022/09/12 10:34:26;;;;;;;4.28;2.35;;;27.20;68.00;;;;;;5002320;28;20358;-68
2022/09/12 10:36:58;;;;;;;5.28;2.75;;;26.70;68.90;;;;;;5017466;28;20065;-68
2022/09/12 10:39:23;;;;;;;6.13;2.60;;;25.70;70.40;;;;;;5036881;28;20037;-68
2022/09/12 10:41:50;;;;;;;4.20;2.58;;;25.40;72.50;;;;;;5032645;28;20029;-68
2022/09/12 10:44:24;;;;;;;4.38;2.00;;;25.50;73.10;;;;;;5015834;28;20449;-68
2022/09/12 10:46:50;;;;;;;3.60;2.00;;;26.40;67.60;;;;;;5014211;28;20073;-69
2022/09/12 10:49:25;;;;;;;2.58;1.50;;;26.90;70.40;;;;;;5016962;28;20064;-69
2022/09/12 10:51:53;;;;;;;5.78;1.90;;;28.00;63.60;;;;;;5015931;28;20046;-68
2022/09/12 10:54:23;;;;;;;2.22;1.30;;;28.80;63.40;;;;;;5016788;28;20026;-68
2022/09/12 10:57:19;;;;;;;5.35;2.00;;;29.10;59.40;;;;;;5019655;28;20021;-68
2022/09/12 11:00:49;;;;;;;4.13;2.00;;;28.90;62.00;;;;;;5016857;28;20097;-68
2022/09/12 11:02:56;;;;;;;3.63;2.05;;;29.00;64.00;;;;;;5004949;28;20037;-68
2022/09/12 11:05:50;;;;;;;4.45;2.13;;;28.50;65.40;;;;;;5016793;28;20044;-68
2022/09/12 11:08:47;;;;;;;4.20;1.90;;;28.30;64.00;;;;;;5034010;28;20108;-68
2022/09/12 11:11:24;;;;;;;3.72;1.83;;;28.90;63.20;;;;;;5023491;28;20053;-68
2022/09/12 11:13:52;;;;;;;2.55;1.20;;;29.10;63.10;;;;;;5009731;28;20029;-68
2022/09/12 11:16:47;;;;;;;2.03;0.90;;;28.80;60.60;;;;;;5017723;28;20026;-68
2022/09/12 11:19:31;;;;;;;4.53;1.83;;;28.70;56.20;;;;;;4982521;28;20050;-68
2022/09/12 11:22:09;;;;;;;3.72;1.70;;;28.60;60.10;;;;;;5026608;28;20052;-68
2022/09/12 11:25:11;;;;;;;3.55;1.50;;;28.70;62.70;;;;;;5015574;28;20026;-68
2022/09/12 11:27:57;;;;;;;2.78;1.10;;;29.00;58.60;;;;;;5026099;28;20057;-68
2022/09/12 11:30:23;;;;;;;1.27;0.75;;;29.50;57.50;;;;;;5032180;28;20034;-68
2022/09/12 11:33:06;;;;;;;2.08;0.70;;;29.60;54.70;;;;;;5026127;28;20029;-68
2022/09/12 11:35:34;;;;;;;2.15;0.90;;;29.30;56.50;;;;;;5036023;28;20022;-69
2022/09/12 11:38:16;;;;;;;1.35;0.70;;;29.30;56.30;;;;;;5020136;28;20036;-69
2022/09/12 11:40:44;;;;;;;1.77;0.80;;;29.20;56.60;;;;;;5014991;28;20033;-68
2022/09/12 11:43:24;;;;;;;2.80;0.82;;;29.00;55.10;;;;;;5015072;28;20110;-68
2022/09/12 11:45:55;;;;;;;2.67;0.90;;;29.00;55.70;;;;;;5016059;28;20036;-68
2022/09/12 11:48:44;;;;;;;1.30;0.70;;;28.90;56.70;;;;;;5033046;28;20132;-68
2022/09/12 11:51:31;;;;;;;2.88;0.80;;;29.00;55.90;;;;;;5024998;28;20497;-68
2022/09/12 11:54:05;;;;;;;0.93;0.52;;;28.30;57.30;;;;;;5002429;28;20057;-68
2022/09/12 11:56:36;;;;;;;1.73;0.63;;;27.90;56.70;;;;;;5015917;28;20018;-68
2022/09/12 11:59:14;;;;;;;1.67;0.75;;;28.00;56.70;;;;;;5035788;28;20140;-67
2022/09/12 12:01:43;;;;;;;2.58;0.73;;;27.90;55.60;;;;;;5029873;28;20080;-68
2022/09/12 12:04:12;;;;;;;1.27;0.60;;;27.70;54.90;;;;;;5016107;28;20029;-67
2022/09/12 12:07:00;;;;;;;2.63;0.82;;;27.20;54.80;;;;;;5016782;28;20025;-68
2022/09/12 12:09:25;;;;;;;2.30;0.70;;;27.40;55.30;;;;;;5019644;28;20065;-67
2022/09/12 12:11:56;;;;;;;2.80;0.70;;;27.70;55.10;;;;;;5011246;28;20132;-67
2022/09/12 12:14:44;;;;;;;1.73;0.88;;;28.10;55.00;;;;;;5013883;28;20484;-69
2022/09/12 12:17:18;;;;;;;1.83;0.60;;;28.40;58.20;;;;;;5009732;28;20040;-69
2022/09/12 12:19:46;;;;;;;2.95;0.80;;;28.20;56.60;;;;;;5025488;28;20445;-69
2022/09/12 12:22:23;;;;;;;1.58;0.75;;;28.10;56.60;;;;;;5022365;28;20033;-69
2022/09/12 12:25:00;;;;;;;1.55;0.88;;;28.30;55.50;;;;;;5015009;28;20038;-68
2022/09/12 12:28:00;;;;;;;1.83;0.52;;;28.30;54.90;;;;;;5012768;28;20510;-68
2022/09/12 12:30:29;;;;;;;1.52;0.90;;;28.20;57.70;;;;;;4996491;28;20304;-68
2022/09/12 12:33:21;;;;;;;2.33;0.93;;;27.80;58.50;;;;;;5023357;28;20056;-69
2022/09/12 12:35:59;;;;;;;1.40;0.70;;;27.50;56.90;;;;;;5033893;28;20109;-68
2022/09/12 12:38:39;;;;;;;1.23;0.80;;;27.50;57.20;;;;;;5039215;28;20021;-69
2022/09/12 12:41:17;;;;;;;2.60;0.90;;;27.40;60.30;;;;;;5023153;28;20350;-68
2022/09/12 12:43:54;;;;;;;1.70;0.80;;;27.50;57.70;;;;;;5017573;28;20065;-68
2022/09/12 12:46:25;;;;;;;5.57;0.95;;;27.40;58.10;;;;;;4995859;28;20062;-68
2022/09/12 12:48:54;;;;;;;1.98;0.80;;;27.50;58.40;;;;;;4999462;28;20051;-68
2022/09/12 12:51:34;;;;;;;3.95;1.05;;;27.50;56.30;;;;;;5004571;28;20072;-69
2022/09/12 12:54:02;;;;;;;1.42;0.70;;;27.40;57.40;;;;;;5026177;28;20022;-68
2022/09/12 12:57:04;;;;;;;4.90;0.95;;;26.60;56.40;;;;;;5026608;28;20029;-68
2022/09/12 12:59:30;;;;;;;1.80;0.98;;;26.20;56.60;;;;;;4990367;28;20073;-68
2022/09/12 13:01:58;;;;;;;1.88;0.77;;;26.30;58.60;;;;;;5019072;28;20105;-68
2022/09/12 13:04:28;;;;;;;6.07;1.20;;;26.60;57.80;;;;;;5030653;28;20032;-68
2022/09/12 13:07:07;;;;;;;3.35;0.98;;;26.60;59.10;;;;;;5038659;28;20029;-68
2022/09/12 13:09:44;;;;;;;2.40;1.00;;;26.60;58.70;;;;;;5021588;28;20064;-68